Climax, Canada
Current Conditions -  °F | °C
As of 11:53 PM on Monday 20 Oct 2014 (Local Time) from KHVR Reporting Station
Clear Clear  
Wind Chill: 48°   Ceiling: Unl
Heat Index: 48°   Visibility: 10mi
Dew Point: 40°   Wind: 3mph
Humidity: 74%   Direction: 60°ENE
Pressure: 29.66"   Gusts: NA
Location:  49.2°N, 108.38°W
Report Text: KHVR 210553Z AUTO 06003KT 10SM CLR 09/04 A2966 RMK AO2 SLP045 T00890044 10200 20078 58010
Loading
Personal Weather Stations






























Interactive Weather Map
Tropical Storm Tracking
New forecast layout! Learn more

10-Day Weather Forecast

Advertisements
Track Severe Weather on mobile